sensor_id;sensor_type;location;lat;lon;timestamp;P1;durP1;ratioP1;P2;durP2;ratioP2
23590;SDS011;11973;52.098;7.582;2022-10-16T00:00:41;8.25;;;7.40;;
23590;SDS011;11973;52.098;7.582;2022-10-16T00:03:08;10.43;;;8.73;;
23590;SDS011;11973;52.098;7.582;2022-10-16T00:05:38;9.00;;;8.23;;
23590;SDS011;11973;52.098;7.582;2022-10-16T00:08:06;9.65;;;8.93;;
23590;SDS011;11973;52.098;7.582;2022-10-16T00:10:33;12.63;;;9.88;;
23590;SDS011;11973;52.098;7.582;2022-10-16T00:12:59;10.57;;;9.68;;
23590;SDS011;11973;52.098;7.582;2022-10-16T00:15:25;11.18;;;10.05;;
23590;SDS011;11973;52.098;7.582;2022-10-16T00:17:51;11.23;;;10.13;;
23590;SDS011;11973;52.098;7.582;2022-10-16T00:20:16;15.52;;;11.25;;
23590;SDS011;11973;52.098;7.582;2022-10-16T00:22:42;11.98;;;10.77;;
23590;SDS011;11973;52.098;7.582;2022-10-16T00:25:08;13.60;;;12.23;;
23590;SDS011;11973;52.098;7.582;2022-10-16T00:27:34;13.77;;;12.57;;
23590;SDS011;11973;52.098;7.582;2022-10-16T00:29:59;14.57;;;12.55;;
23590;SDS011;11973;52.098;7.582;2022-10-16T00:32:25;13.90;;;12.43;;
23590;SDS011;11973;52.098;7.582;2022-10-16T00:34:51;15.48;;;12.95;;
23590;SDS011;11973;52.098;7.582;2022-10-16T00:37:19;15.68;;;13.15;;
23590;SDS011;11973;52.098;7.582;2022-10-16T00:39:45;15.65;;;13.60;;
23590;SDS011;11973;52.098;7.582;2022-10-16T00:42:15;15.18;;;13.57;;
23590;SDS011;11973;52.098;7.582;2022-10-16T00:47:28;16.77;;;13.77;;
23590;SDS011;11973;52.098;7.582;2022-10-16T00:50:21;14.50;;;13.07;;
23590;SDS011;11973;52.098;7.582;2022-10-16T00:52:56;15.02;;;13.43;;
23590;SDS011;11973;52.098;7.582;2022-10-16T00:55:25;14.25;;;12.90;;
23590;SDS011;11973;52.098;7.582;2022-10-16T00:57:52;14.52;;;13.00;;
23590;SDS011;11973;52.098;7.582;2022-10-16T01:00:23;14.30;;;12.95;;
23590;SDS011;11973;52.098;7.582;2022-10-16T01:02:54;14.98;;;13.10;;
23590;SDS011;11973;52.098;7.582;2022-10-16T01:05:22;18.60;;;14.00;;
23590;SDS011;11973;52.098;7.582;2022-10-16T01:08:08;18.27;;;13.95;;
23590;SDS011;11973;52.098;7.582;2022-10-16T01:10:41;16.90;;;12.80;;
23590;SDS011;11973;52.098;7.582;2022-10-16T01:13:21;17.23;;;13.80;;
23590;SDS011;11973;52.098;7.582;2022-10-16T01:16:05;18.08;;;13.85;;
23590;SDS011;11973;52.098;7.582;2022-10-16T01:21:15;15.13;;;13.65;;
23590;SDS011;11973;52.098;7.582;2022-10-16T01:26:31;16.48;;;14.60;;
23590;SDS011;11973;52.098;7.582;2022-10-16T01:29:08;17.83;;;13.77;;
23590;SDS011;11973;52.098;7.582;2022-10-16T01:31:40;17.38;;;13.75;;
23590;SDS011;11973;52.098;7.582;2022-10-16T01:34:14;18.67;;;14.00;;
23590;SDS011;11973;52.098;7.582;2022-10-16T01:36:47;20.60;;;13.95;;
23590;SDS011;11973;52.098;7.582;2022-10-16T01:39:22;15.23;;;13.55;;
23590;SDS011;11973;52.098;7.582;2022-10-16T01:42:11;16.27;;;14.13;;
23590;SDS011;11973;52.098;7.582;2022-10-16T01:44:43;16.58;;;14.30;;
23590;SDS011;11973;52.098;7.582;2022-10-16T01:47:11;18.60;;;13.95;;
23590;SDS011;11973;52.098;7.582;2022-10-16T01:49:39;19.20;;;14.18;;
23590;SDS011;11973;52.098;7.582;2022-10-16T01:52:09;17.35;;;13.82;;
23590;SDS011;11973;52.098;7.582;2022-10-16T01:54:40;17.30;;;13.95;;
23590;SDS011;11973;52.098;7.582;2022-10-16T01:57:08;22.40;;;14.00;;
23590;SDS011;11973;52.098;7.582;2022-10-16T01:59:38;20.25;;;13.98;;
23590;SDS011;11973;52.098;7.582;2022-10-16T02:02:09;19.40;;;13.65;;
23590;SDS011;11973;52.098;7.582;2022-10-16T02:04:46;16.10;;;13.93;;
23590;SDS011;11973;52.098;7.582;2022-10-16T02:07:24;21.90;;;14.18;;
23590;SDS011;11973;52.098;7.582;2022-10-16T02:09:50;17.42;;;13.45;;
23590;SDS011;11973;52.098;7.582;2022-10-16T02:12:19;18.70;;;13.20;;
23590;SDS011;11973;52.098;7.582;2022-10-16T02:14:53;20.38;;;14.50;;
23590;SDS011;11973;52.098;7.582;2022-10-16T02:17:20;15.77;;;13.40;;
23590;SDS011;11973;52.098;7.582;2022-10-16T02:19:47;14.75;;;13.23;;
23590;SDS011;11973;52.098;7.582;2022-10-16T02:22:15;20.75;;;13.65;;
23590;SDS011;11973;52.098;7.582;2022-10-16T02:29:55;17.65;;;13.73;;
23590;SDS011;11973;52.098;7.582;2022-10-16T02:32:43;16.80;;;13.63;;
23590;SDS011;11973;52.098;7.582;2022-10-16T02:35:11;19.15;;;13.68;;
23590;SDS011;11973;52.098;7.582;2022-10-16T02:37:38;17.08;;;13.25;;
23590;SDS011;11973;52.098;7.582;2022-10-16T02:40:05;13.77;;;12.32;;
23590;SDS011;11973;52.098;7.582;2022-10-16T02:42:36;17.70;;;12.50;;
23590;SDS011;11973;52.098;7.582;2022-10-16T02:45:05;14.55;;;12.43;;
23590;SDS011;11973;52.098;7.582;2022-10-16T02:47:32;14.90;;;12.40;;
23590;SDS011;11973;52.098;7.582;2022-10-16T02:49:57;13.65;;;11.55;;
23590;SDS011;11973;52.098;7.582;2022-10-16T02:52:23;15.25;;;11.93;;
23590;SDS011;11973;52.098;7.582;2022-10-16T02:54:49;14.07;;;12.13;;
23590;SDS011;11973;52.098;7.582;2022-10-16T02:57:15;14.35;;;12.23;;
23590;SDS011;11973;52.098;7.582;2022-10-16T02:59:41;13.05;;;11.60;;
23590;SDS011;11973;52.098;7.582;2022-10-16T03:02:07;13.73;;;11.90;;
23590;SDS011;11973;52.098;7.582;2022-10-16T03:04:32;13.68;;;11.95;;
23590;SDS011;11973;52.098;7.582;2022-10-16T03:06:58;16.05;;;12.15;;
23590;SDS011;11973;52.098;7.582;2022-10-16T03:09:24;14.88;;;11.30;;
23590;SDS011;11973;52.098;7.582;2022-10-16T03:11:49;12.50;;;11.40;;
23590;SDS011;11973;52.098;7.582;2022-10-16T03:14:15;12.43;;;11.18;;
23590;SDS011;11973;52.098;7.582;2022-10-16T03:16:42;11.88;;;10.77;;
23590;SDS011;11973;52.098;7.582;2022-10-16T03:19:07;13.02;;;11.57;;
23590;SDS011;11973;52.098;7.582;2022-10-16T03:21:33;11.40;;;10.30;;
23590;SDS011;11973;52.098;7.582;2022-10-16T03:23:59;12.15;;;11.00;;
23590;SDS011;11973;52.098;7.582;2022-10-16T03:26:24;10.35;;;9.52;;
23590;SDS011;11973;52.098;7.582;2022-10-16T03:28:50;10.73;;;9.68;;
23590;SDS011;11973;52.098;7.582;2022-10-16T03:31:16;9.95;;;9.13;;
23590;SDS011;11973;52.098;7.582;2022-10-16T03:33:41;10.57;;;9.63;;
23590;SDS011;11973;52.098;7.582;2022-10-16T03:36:07;9.50;;;8.57;;
23590;SDS011;11973;52.098;7.582;2022-10-16T03:38:33;10.02;;;8.82;;
23590;SDS011;11973;52.098;7.582;2022-10-16T03:40:58;10.35;;;8.10;;
23590;SDS011;11973;52.098;7.582;2022-10-16T03:43:24;8.13;;;7.63;;
23590;SDS011;11973;52.098;7.582;2022-10-16T03:45:50;8.27;;;7.38;;
23590;SDS011;11973;52.098;7.582;2022-10-16T03:48:17;8.45;;;7.43;;
23590;SDS011;11973;52.098;7.582;2022-10-16T03:50:43;7.57;;;7.03;;
23590;SDS011;11973;52.098;7.582;2022-10-16T03:53:09;7.00;;;6.40;;
23590;SDS011;11973;52.098;7.582;2022-10-16T03:55:35;6.72;;;6.38;;
23590;SDS011;11973;52.098;7.582;2022-10-16T03:58:01;6.85;;;6.25;;
23590;SDS011;11973;52.098;7.582;2022-10-16T04:00:26;6.13;;;5.78;;
23590;SDS011;11973;52.098;7.582;2022-10-16T04:02:52;5.82;;;5.53;;
23590;SDS011;11973;52.098;7.582;2022-10-16T04:05:18;5.97;;;5.75;;
23590;SDS011;11973;52.098;7.582;2022-10-16T04:07:43;7.20;;;5.88;;
23590;SDS011;11973;52.098;7.582;2022-10-16T04:10:09;5.40;;;5.30;;
23590;SDS011;11973;52.098;7.582;2022-10-16T04:12:35;5.88;;;5.47;;
23590;SDS011;11973;52.098;7.582;2022-10-16T04:15:01;5.30;;;5.20;;
23590;SDS011;11973;52.098;7.582;2022-10-16T05:16:43;3.28;;;3.17;;
23590;SDS011;11973;52.098;7.582;2022-10-16T05:19:09;3.67;;;3.47;;
23590;SDS011;11973;52.098;7.582;2022-10-16T05:21:35;3.33;;;3.28;;
23590;SDS011;11973;52.098;7.582;2022-10-16T05:24:01;3.22;;;3.22;;
23590;SDS011;11973;52.098;7.582;2022-10-16T05:26:27;3.42;;;3.30;;
23590;SDS011;11973;52.098;7.582;2022-10-16T05:28:52;3.38;;;3.17;;
23590;SDS011;11973;52.098;7.582;2022-10-16T05:31:18;4.13;;;3.90;;
23590;SDS011;11973;52.098;7.582;2022-10-16T05:33:44;3.42;;;3.33;;
23590;SDS011;11973;52.098;7.582;2022-10-16T05:36:10;3.50;;;3.50;;
23590;SDS011;11973;52.098;7.582;2022-10-16T05:38:36;3.35;;;3.25;;
23590;SDS011;11973;52.098;7.582;2022-10-16T05:41:03;3.78;;;3.50;;
23590;SDS011;11973;52.098;7.582;2022-10-16T05:43:30;3.47;;;3.38;;
23590;SDS011;11973;52.098;7.582;2022-10-16T05:45:57;3.38;;;3.30;;
23590;SDS011;11973;52.098;7.582;2022-10-16T05:48:25;5.25;;;3.53;;
23590;SDS011;11973;52.098;7.582;2022-10-16T05:51:02;3.65;;;3.55;;
23590;SDS011;11973;52.098;7.582;2022-10-16T05:53:31;3.45;;;3.45;;
23590;SDS011;11973;52.098;7.582;2022-10-16T05:55:58;3.65;;;3.55;;
23590;SDS011;11973;52.098;7.582;2022-10-16T05:58:24;3.28;;;3.20;;
23590;SDS011;11973;52.098;7.582;2022-10-16T06:01:03;3.83;;;3.63;;
23590;SDS011;11973;52.098;7.582;2022-10-16T06:03:30;3.60;;;3.60;;
23590;SDS011;11973;52.098;7.582;2022-10-16T06:05:56;3.88;;;3.80;;
23590;SDS011;11973;52.098;7.582;2022-10-16T06:08:22;3.95;;;3.85;;
23590;SDS011;11973;52.098;7.582;2022-10-16T06:10:48;4.30;;;4.15;;
23590;SDS011;11973;52.098;7.582;2022-10-16T06:13:14;4.05;;;3.75;;
23590;SDS011;11973;52.098;7.582;2022-10-16T06:15:41;3.70;;;3.60;;
23590;SDS011;11973;52.098;7.582;2022-10-16T06:18:08;4.00;;;3.80;;
23590;SDS011;11973;52.098;7.582;2022-10-16T06:20:34;4.78;;;4.45;;
23590;SDS011;11973;52.098;7.582;2022-10-16T06:23:01;4.20;;;4.00;;
23590;SDS011;11973;52.098;7.582;2022-10-16T06:25:27;3.95;;;3.83;;
23590;SDS011;11973;52.098;7.582;2022-10-16T06:27:52;4.78;;;3.95;;
23590;SDS011;11973;52.098;7.582;2022-10-16T06:30:18;4.28;;;4.18;;
23590;SDS011;11973;52.098;7.582;2022-10-16T06:32:43;4.10;;;4.00;;
23590;SDS011;11973;52.098;7.582;2022-10-16T06:35:09;3.88;;;3.72;;
23590;SDS011;11973;52.098;7.582;2022-10-16T06:37:35;3.67;;;3.58;;
23590;SDS011;11973;52.098;7.582;2022-10-16T06:40:00;3.80;;;3.70;;
23590;SDS011;11973;52.098;7.582;2022-10-16T06:42:29;3.72;;;3.67;;
23590;SDS011;11973;52.098;7.582;2022-10-16T06:44:55;3.35;;;3.35;;
23590;SDS011;11973;52.098;7.582;2022-10-16T06:47:21;3.95;;;3.83;;
23590;SDS011;11973;52.098;7.582;2022-10-16T06:49:47;3.80;;;3.63;;
23590;SDS011;11973;52.098;7.582;2022-10-16T06:52:12;3.88;;;3.60;;
23590;SDS011;11973;52.098;7.582;2022-10-16T06:54:38;3.92;;;3.72;;
23590;SDS011;11973;52.098;7.582;2022-10-16T06:57:04;3.35;;;3.20;;
23590;SDS011;11973;52.098;7.582;2022-10-16T06:59:29;3.53;;;3.33;;
23590;SDS011;11973;52.098;7.582;2022-10-16T07:01:55;3.38;;;3.38;;
23590;SDS011;11973;52.098;7.582;2022-10-16T07:04:20;3.30;;;3.28;;
23590;SDS011;11973;52.098;7.582;2022-10-16T07:06:46;3.22;;;3.22;;
23590;SDS011;11973;52.098;7.582;2022-10-16T07:09:12;3.22;;;3.22;;
23590;SDS011;11973;52.098;7.582;2022-10-16T07:11:38;3.00;;;2.90;;
23590;SDS011;11973;52.098;7.582;2022-10-16T07:14:05;3.13;;;3.03;;
23590;SDS011;11973;52.098;7.582;2022-10-16T07:16:42;3.25;;;3.10;;
23590;SDS011;11973;52.098;7.582;2022-10-16T07:19:07;3.08;;;2.97;;
23590;SDS011;11973;52.098;7.582;2022-10-16T07:21:33;2.85;;;2.85;;
23590;SDS011;11973;52.098;7.582;2022-10-16T07:24:03;3.38;;;3.28;;
23590;SDS011;11973;52.098;7.582;2022-10-16T07:26:32;2.95;;;2.78;;
23590;SDS011;11973;52.098;7.582;2022-10-16T07:28:59;3.17;;;3.17;;
23590;SDS011;11973;52.098;7.582;2022-10-16T07:31:26;2.90;;;2.72;;
23590;SDS011;11973;52.098;7.582;2022-10-16T07:33:52;3.22;;;3.22;;
23590;SDS011;11973;52.098;7.582;2022-10-16T07:36:18;3.10;;;3.10;;
23590;SDS011;11973;52.098;7.582;2022-10-16T07:38:45;3.45;;;3.22;;
23590;SDS011;11973;52.098;7.582;2022-10-16T07:41:12;3.92;;;3.58;;
23590;SDS011;11973;52.098;7.582;2022-10-16T07:43:39;3.03;;;2.90;;
23590;SDS011;11973;52.098;7.582;2022-10-16T07:46:10;3.60;;;3.28;;
23590;SDS011;11973;52.098;7.582;2022-10-16T07:48:35;2.97;;;2.78;;
23590;SDS011;11973;52.098;7.582;2022-10-16T07:51:02;2.67;;;2.60;;
23590;SDS011;11973;52.098;7.582;2022-10-16T07:53:30;3.33;;;2.90;;
23590;SDS011;11973;52.098;7.582;2022-10-16T07:56:00;2.95;;;2.85;;
23590;SDS011;11973;52.098;7.582;2022-10-16T07:58:28;3.25;;;3.03;;
23590;SDS011;11973;52.098;7.582;2022-10-16T08:00:54;2.30;;;2.10;;
23590;SDS011;11973;52.098;7.582;2022-10-16T08:03:20;4.32;;;2.53;;
23590;SDS011;11973;52.098;7.582;2022-10-16T08:05:46;2.15;;;2.15;;
23590;SDS011;11973;52.098;7.582;2022-10-16T08:08:13;2.38;;;2.38;;
23590;SDS011;11973;52.098;7.582;2022-10-16T08:10:40;3.85;;;2.30;;
23590;SDS011;11973;52.098;7.582;2022-10-16T08:13:05;2.20;;;2.17;;
23590;SDS011;11973;52.098;7.582;2022-10-16T08:15:31;2.28;;;2.20;;
23590;SDS011;11973;52.098;7.582;2022-10-16T08:17:58;2.35;;;2.35;;
23590;SDS011;11973;52.098;7.582;2022-10-16T08:20:25;2.28;;;2.25;;
23590;SDS011;11973;52.098;7.582;2022-10-16T08:22:52;2.45;;;2.13;;
23590;SDS011;11973;52.098;7.582;2022-10-16T08:25:18;2.08;;;2.08;;
23590;SDS011;11973;52.098;7.582;2022-10-16T08:27:43;2.10;;;2.00;;
23590;SDS011;11973;52.098;7.582;2022-10-16T08:30:09;2.00;;;1.90;;
23590;SDS011;11973;52.098;7.582;2022-10-16T08:32:35;2.00;;;1.90;;
23590;SDS011;11973;52.098;7.582;2022-10-16T08:35:01;2.28;;;2.00;;
23590;SDS011;11973;52.098;7.582;2022-10-16T08:37:30;2.20;;;2.10;;
23590;SDS011;11973;52.098;7.582;2022-10-16T08:39:56;3.08;;;1.85;;
23590;SDS011;11973;52.098;7.582;2022-10-16T08:42:44;3.05;;;2.00;;
23590;SDS011;11973;52.098;7.582;2022-10-16T08:45:29;1.80;;;1.65;;
23590;SDS011;11973;52.098;7.582;2022-10-16T08:48:20;1.70;;;1.60;;
23590;SDS011;11973;52.098;7.582;2022-10-16T08:51:00;1.77;;;1.63;;
23590;SDS011;11973;52.098;7.582;2022-10-16T08:54:01;3.42;;;1.80;;
23590;SDS011;11973;52.098;7.582;2022-10-16T08:56:22;1.38;;;1.27;;
23590;SDS011;11973;52.098;7.582;2022-10-16T08:58:48;1.35;;;1.35;;
23590;SDS011;11973;52.098;7.582;2022-10-16T09:01:16;1.50;;;1.45;;
23590;SDS011;11973;52.098;7.582;2022-10-16T09:06:55;1.05;;;1.05;;
23590;SDS011;11973;52.098;7.582;2022-10-16T09:09:42;1.38;;;1.35;;
23590;SDS011;11973;52.098;7.582;2022-10-16T09:17:46;1.17;;;1.17;;
23590;SDS011;11973;52.098;7.582;2022-10-16T09:20:29;2.67;;;1.30;;
23590;SDS011;11973;52.098;7.582;2022-10-16T09:25:30;0.52;;;0.52;;
23590;SDS011;11973;52.098;7.582;2022-10-16T09:27:57;2.38;;;0.70;;
23590;SDS011;11973;52.098;7.582;2022-10-16T09:30:25;0.63;;;0.60;;
23590;SDS011;11973;52.098;7.582;2022-10-16T09:32:54;0.73;;;0.73;;
23590;SDS011;11973;52.098;7.582;2022-10-16T09:35:24;3.00;;;0.75;;
23590;SDS011;11973;52.098;7.582;2022-10-16T09:37:56;0.80;;;0.80;;
23590;SDS011;11973;52.098;7.582;2022-10-16T09:40:28;0.68;;;0.68;;
23590;SDS011;11973;52.098;7.582;2022-10-16T09:43:06;2.55;;;1.00;;
23590;SDS011;11973;52.098;7.582;2022-10-16T09:45:38;0.75;;;0.75;;
23590;SDS011;11973;52.098;7.582;2022-10-16T09:48:10;0.63;;;0.50;;
23590;SDS011;11973;52.098;7.582;2022-10-16T09:50:37;0.77;;;0.77;;
23590;SDS011;11973;52.098;7.582;2022-10-16T09:53:11;1.60;;;0.90;;
23590;SDS011;11973;52.098;7.582;2022-10-16T13:35:24;0.98;;;0.90;;
23590;SDS011;11973;52.098;7.582;2022-10-16T13:40:36;1.50;;;0.70;;
23590;SDS011;11973;52.098;7.582;2022-10-16T13:43:01;0.60;;;0.60;;
23590;SDS011;11973;52.098;7.582;2022-10-16T13:45:27;0.70;;;0.70;;
23590;SDS011;11973;52.098;7.582;2022-10-16T13:48:11;1.58;;;0.55;;
23590;SDS011;11973;52.098;7.582;2022-10-16T13:50:41;1.38;;;0.55;;
23590;SDS011;11973;52.098;7.582;2022-10-16T13:53:09;1.50;;;0.50;;
23590;SDS011;11973;52.098;7.582;2022-10-16T13:55:39;0.73;;;0.70;;
23590;SDS011;11973;52.098;7.582;2022-10-16T13:58:12;1.75;;;0.70;;
23590;SDS011;11973;52.098;7.582;2022-10-16T14:00:39;3.60;;;0.68;;
23590;SDS011;11973;52.098;7.582;2022-10-16T14:03:18;1.23;;;0.52;;
23590;SDS011;11973;52.098;7.582;2022-10-16T14:05:47;0.70;;;0.50;;
23590;SDS011;11973;52.098;7.582;2022-10-16T14:08:15;0.73;;;0.70;;
23590;SDS011;11973;52.098;7.582;2022-10-16T14:10:41;1.88;;;0.65;;
23590;SDS011;11973;52.098;7.582;2022-10-16T14:13:07;0.75;;;0.50;;
23590;SDS011;11973;52.098;7.582;2022-10-16T14:15:38;0.82;;;0.57;;
23590;SDS011;11973;52.098;7.582;2022-10-16T14:18:05;0.60;;;0.40;;
23590;SDS011;11973;52.098;7.582;2022-10-16T14:20:31;2.70;;;0.40;;
23590;SDS011;11973;52.098;7.582;2022-10-16T14:23:03;0.50;;;0.47;;
23590;SDS011;11973;52.098;7.582;2022-10-16T14:26:14;1.48;;;0.50;;
23590;SDS011;11973;52.098;7.582;2022-10-16T14:29:17;0.80;;;0.80;;
23590;SDS011;11973;52.098;7.582;2022-10-16T14:32:00;1.77;;;0.40;;
23590;SDS011;11973;52.098;7.582;2022-10-16T14:36:59;1.60;;;0.40;;
23590;SDS011;11973;52.098;7.582;2022-10-16T14:39:32;2.35;;;0.88;;
23590;SDS011;11973;52.098;7.582;2022-10-16T14:41:58;0.82;;;0.73;;
23590;SDS011;11973;52.098;7.582;2022-10-16T14:44:35;1.13;;;0.70;;
23590;SDS011;11973;52.098;7.582;2022-10-16T14:47:56;0.50;;;0.47;;
23590;SDS011;11973;52.098;7.582;2022-10-16T14:51:02;0.50;;;0.45;;
23590;SDS011;11973;52.098;7.582;2022-10-16T14:53:30;1.13;;;0.60;;
23590;SDS011;11973;52.098;7.582;2022-10-16T14:55:56;2.00;;;0.50;;
23590;SDS011;11973;52.098;7.582;2022-10-16T14:58:22;0.75;;;0.50;;
23590;SDS011;11973;52.098;7.582;2022-10-16T15:00:48;1.27;;;0.60;;
23590;SDS011;11973;52.098;7.582;2022-10-16T15:03:14;1.15;;;0.43;;
23590;SDS011;11973;52.098;7.582;2022-10-16T15:05:40;0.50;;;0.47;;
23590;SDS011;11973;52.098;7.582;2022-10-16T15:08:06;0.47;;;0.47;;
23590;SDS011;11973;52.098;7.582;2022-10-16T15:10:33;1.30;;;0.70;;
23590;SDS011;11973;52.098;7.582;2022-10-16T15:13:03;2.20;;;0.60;;
23590;SDS011;11973;52.098;7.582;2022-10-16T15:15:33;0.40;;;0.40;;
23590;SDS011;11973;52.098;7.582;2022-10-16T15:18:01;0.82;;;0.50;;
23590;SDS011;11973;52.098;7.582;2022-10-16T15:20:28;0.93;;;0.50;;
23590;SDS011;11973;52.098;7.582;2022-10-16T15:22:56;1.35;;;0.57;;
23590;SDS011;11973;52.098;7.582;2022-10-16T15:25:27;0.65;;;0.65;;
23590;SDS011;11973;52.098;7.582;2022-10-16T15:27:54;0.63;;;0.57;;
23590;SDS011;11973;52.098;7.582;2022-10-16T15:30:20;1.67;;;0.60;;
23590;SDS011;11973;52.098;7.582;2022-10-16T15:32:46;5.43;;;0.85;;
23590;SDS011;11973;52.098;7.582;2022-10-16T15:35:12;0.45;;;0.43;;
23590;SDS011;11973;52.098;7.582;2022-10-16T15:37:37;0.93;;;0.60;;
23590;SDS011;11973;52.098;7.582;2022-10-16T15:40:03;0.60;;;0.60;;
23590;SDS011;11973;52.098;7.582;2022-10-16T15:42:29;1.48;;;0.82;;
23590;SDS011;11973;52.098;7.582;2022-10-16T15:44:55;1.70;;;0.73;;
23590;SDS011;11973;52.098;7.582;2022-10-16T15:47:20;1.63;;;0.63;;
23590;SDS011;11973;52.098;7.582;2022-10-16T15:49:46;1.50;;;0.70;;
23590;SDS011;11973;52.098;7.582;2022-10-16T15:52:12;1.85;;;0.60;;
23590;SDS011;11973;52.098;7.582;2022-10-16T15:54:38;1.75;;;0.80;;
23590;SDS011;11973;52.098;7.582;2022-10-16T15:57:03;1.42;;;1.20;;
23590;SDS011;11973;52.098;7.582;2022-10-16T15:59:29;3.42;;;2.25;;
23590;SDS011;11973;52.098;7.582;2022-10-16T16:01:55;2.58;;;2.28;;
23590;SDS011;11973;52.098;7.582;2022-10-16T16:04:21;2.28;;;2.13;;
23590;SDS011;11973;52.098;7.582;2022-10-16T16:06:46;1.98;;;1.88;;
23590;SDS011;11973;52.098;7.582;2022-10-16T16:09:13;2.10;;;1.90;;
23590;SDS011;11973;52.098;7.582;2022-10-16T16:11:39;3.95;;;1.83;;
23590;SDS011;11973;52.098;7.582;2022-10-16T16:14:06;3.80;;;2.13;;
23590;SDS011;11973;52.098;7.582;2022-10-16T16:16:32;1.63;;;1.27;;
23590;SDS011;11973;52.098;7.582;2022-10-16T16:19:02;1.70;;;1.60;;
23590;SDS011;11973;52.098;7.582;2022-10-16T16:21:32;1.75;;;1.75;;
23590;SDS011;11973;52.098;7.582;2022-10-16T16:23:58;1.63;;;1.63;;
23590;SDS011;11973;52.098;7.582;2022-10-16T16:26:25;2.03;;;1.92;;
23590;SDS011;11973;52.098;7.582;2022-10-16T16:28:54;2.75;;;2.20;;
23590;SDS011;11973;52.098;7.582;2022-10-16T16:31:25;3.03;;;2.00;;
23590;SDS011;11973;52.098;7.582;2022-10-16T16:33:52;3.25;;;1.67;;
23590;SDS011;11973;52.098;7.582;2022-10-16T16:36:17;2.20;;;1.85;;
23590;SDS011;11973;52.098;7.582;2022-10-16T16:38:44;3.20;;;2.05;;
23590;SDS011;11973;52.098;7.582;2022-10-16T16:41:13;3.00;;;2.33;;
23590;SDS011;11973;52.098;7.582;2022-10-16T16:43:41;3.90;;;2.75;;
23590;SDS011;11973;52.098;7.582;2022-10-16T16:46:07;6.68;;;4.53;;
23590;SDS011;11973;52.098;7.582;2022-10-16T16:48:33;5.07;;;3.72;;
23590;SDS011;11973;52.098;7.582;2022-10-16T16:51:06;5.65;;;3.88;;
23590;SDS011;11973;52.098;7.582;2022-10-16T16:53:34;6.03;;;4.25;;
23590;SDS011;11973;52.098;7.582;2022-10-16T16:56:01;3.97;;;3.65;;
23590;SDS011;11973;52.098;7.582;2022-10-16T16:58:30;5.93;;;4.50;;
23590;SDS011;11973;52.098;7.582;2022-10-16T17:00:56;3.58;;;3.28;;
23590;SDS011;11973;52.098;7.582;2022-10-16T17:03:30;7.78;;;3.90;;
23590;SDS011;11973;52.098;7.582;2022-10-16T17:05:57;3.55;;;3.42;;
23590;SDS011;11973;52.098;7.582;2022-10-16T17:08:28;3.67;;;3.35;;
23590;SDS011;11973;52.098;7.582;2022-10-16T17:10:55;3.60;;;3.40;;
23590;SDS011;11973;52.098;7.582;2022-10-16T17:13:22;3.00;;;2.85;;
23590;SDS011;11973;52.098;7.582;2022-10-16T17:15:56;2.72;;;2.17;;
23590;SDS011;11973;52.098;7.582;2022-10-16T17:18:22;2.30;;;2.20;;
23590;SDS011;11973;52.098;7.582;2022-10-16T17:20:49;3.75;;;2.50;;
23590;SDS011;11973;52.098;7.582;2022-10-16T17:23:16;4.15;;;2.72;;
23590;SDS011;11973;52.098;7.582;2022-10-16T17:25:43;5.80;;;5.28;;
23590;SDS011;11973;52.098;7.582;2022-10-16T17:28:09;8.52;;;7.93;;
23590;SDS011;11973;52.098;7.582;2022-10-16T17:30:36;10.43;;;7.13;;
23590;SDS011;11973;52.098;7.582;2022-10-16T17:33:03;6.82;;;6.32;;
23590;SDS011;11973;52.098;7.582;2022-10-16T17:35:35;5.85;;;5.45;;
23590;SDS011;11973;52.098;7.582;2022-10-16T17:38:05;10.10;;;5.00;;
23590;SDS011;11973;52.098;7.582;2022-10-16T17:40:31;5.80;;;5.30;;
23590;SDS011;11973;52.098;7.582;2022-10-16T17:42:58;5.47;;;5.03;;
23590;SDS011;11973;52.098;7.582;2022-10-16T17:45:24;6.35;;;5.78;;
23590;SDS011;11973;52.098;7.582;2022-10-16T17:47:50;7.03;;;5.10;;
23590;SDS011;11973;52.098;7.582;2022-10-16T17:50:15;4.82;;;4.40;;
23590;SDS011;11973;52.098;7.582;2022-10-16T17:52:41;4.75;;;4.55;;
23590;SDS011;11973;52.098;7.582;2022-10-16T17:55:07;5.25;;;4.82;;
23590;SDS011;11973;52.098;7.582;2022-10-16T17:57:33;7.55;;;5.82;;
23590;SDS011;11973;52.098;7.582;2022-10-16T17:59:59;6.63;;;5.90;;
23590;SDS011;11973;52.098;7.582;2022-10-16T18:02:29;6.22;;;5.63;;
23590;SDS011;11973;52.098;7.582;2022-10-16T18:04:56;5.57;;;4.93;;
23590;SDS011;11973;52.098;7.582;2022-10-16T18:07:22;5.30;;;4.90;;
23590;SDS011;11973;52.098;7.582;2022-10-16T18:09:48;5.22;;;4.97;;
23590;SDS011;11973;52.098;7.582;2022-10-16T18:12:13;5.50;;;5.10;;
23590;SDS011;11973;52.098;7.582;2022-10-16T18:14:39;6.50;;;5.93;;
23590;SDS011;11973;52.098;7.582;2022-10-16T18:17:05;7.07;;;6.45;;
23590;SDS011;11973;52.098;7.582;2022-10-16T18:19:31;8.63;;;7.88;;
23590;SDS011;11973;52.098;7.582;2022-10-16T18:21:57;9.13;;;8.27;;
23590;SDS011;11973;52.098;7.582;2022-10-16T18:24:23;9.75;;;8.20;;
23590;SDS011;11973;52.098;7.582;2022-10-16T18:26:53;8.10;;;7.50;;
23590;SDS011;11973;52.098;7.582;2022-10-16T18:29:23;8.07;;;7.47;;
23590;SDS011;11973;52.098;7.582;2022-10-16T18:31:50;8.10;;;7.60;;
23590;SDS011;11973;52.098;7.582;2022-10-16T18:34:17;8.40;;;7.57;;
23590;SDS011;11973;52.098;7.582;2022-10-16T18:36:43;8.07;;;7.45;;
23590;SDS011;11973;52.098;7.582;2022-10-16T18:39:09;9.02;;;8.18;;
23590;SDS011;11973;52.098;7.582;2022-10-16T18:41:37;9.15;;;8.30;;
23590;SDS011;11973;52.098;7.582;2022-10-16T18:44:04;9.88;;;9.07;;
23590;SDS011;11973;52.098;7.582;2022-10-16T18:46:30;10.05;;;9.05;;
23590;SDS011;11973;52.098;7.582;2022-10-16T18:48:56;8.80;;;8.07;;
23590;SDS011;11973;52.098;7.582;2022-10-16T18:51:27;9.98;;;8.45;;
23590;SDS011;11973;52.098;7.582;2022-10-16T18:53:59;9.32;;;8.43;;
23590;SDS011;11973;52.098;7.582;2022-10-16T18:56:34;8.43;;;7.75;;
23590;SDS011;11973;52.098;7.582;2022-10-16T18:59:01;9.38;;;8.50;;
23590;SDS011;11973;52.098;7.582;2022-10-16T19:01:30;8.57;;;8.00;;
23590;SDS011;11973;52.098;7.582;2022-10-16T19:03:58;8.85;;;8.23;;
23590;SDS011;11973;52.098;7.582;2022-10-16T19:06:27;9.65;;;8.75;;
23590;SDS011;11973;52.098;7.582;2022-10-16T19:08:54;9.27;;;8.38;;
23590;SDS011;11973;52.098;7.582;2022-10-16T19:11:21;9.23;;;8.43;;
23590;SDS011;11973;52.098;7.582;2022-10-16T19:13:49;9.98;;;8.98;;
23590;SDS011;11973;52.098;7.582;2022-10-16T19:16:20;9.63;;;8.80;;
23590;SDS011;11973;52.098;7.582;2022-10-16T19:18:48;9.18;;;8.30;;
23590;SDS011;11973;52.098;7.582;2022-10-16T19:21:15;8.82;;;7.97;;
23590;SDS011;11973;52.098;7.582;2022-10-16T19:23:41;14.18;;;8.00;;
23590;SDS011;11973;52.098;7.582;2022-10-16T19:26:09;8.60;;;7.70;;
23590;SDS011;11973;52.098;7.582;2022-10-16T19:28:39;8.43;;;7.18;;
23590;SDS011;11973;52.098;7.582;2022-10-16T19:31:07;7.80;;;7.07;;
23590;SDS011;11973;52.098;7.582;2022-10-16T19:33:35;7.72;;;7.22;;
23590;SDS011;11973;52.098;7.582;2022-10-16T19:36:05;7.15;;;6.65;;
23590;SDS011;11973;52.098;7.582;2022-10-16T19:38:31;6.50;;;6.10;;
23590;SDS011;11973;52.098;7.582;2022-10-16T19:41:03;6.28;;;6.03;;
23590;SDS011;11973;52.098;7.582;2022-10-16T19:43:32;6.38;;;5.95;;
23590;SDS011;11973;52.098;7.582;2022-10-16T19:46:01;6.28;;;5.65;;
23590;SDS011;11973;52.098;7.582;2022-10-16T19:48:28;5.85;;;5.55;;
23590;SDS011;11973;52.098;7.582;2022-10-16T19:50:56;5.40;;;5.30;;
23590;SDS011;11973;52.098;7.582;2022-10-16T19:53:22;6.13;;;5.68;;
23590;SDS011;11973;52.098;7.582;2022-10-16T19:55:50;5.30;;;5.00;;
23590;SDS011;11973;52.098;7.582;2022-10-16T19:58:15;8.07;;;5.40;;
23590;SDS011;11973;52.098;7.582;2022-10-16T20:00:48;5.78;;;5.47;;